sensor_id;sensor_type;location;lat;lon;timestamp;pressure;altitude;pressure_sealevel;temperature;humidity
36062;BME280;22123;52.412;20.970;2023-04-30T00:00:09;100420.66;;;11.40;100.00
36062;BME280;22123;52.412;20.970;2023-04-30T00:02:35;100429.03;;;11.45;100.00
36062;BME280;22123;52.412;20.970;2023-04-30T00:05:01;100423.13;;;11.50;100.00
36062;BME280;22123;52.412;20.970;2023-04-30T00:07:27;100448.47;;;11.64;100.00
36062;BME280;22123;52.412;20.970;2023-04-30T00:09:53;100395.44;;;11.33;100.00
36062;BME280;22123;52.412;20.970;2023-04-30T00:12:19;100416.06;;;11.49;100.00
36062;BME280;22123;52.412;20.970;2023-04-30T00:14:44;100417.25;;;11.46;100.00
36062;BME280;22123;52.412;20.970;2023-04-30T00:17:10;100436.44;;;11.52;100.00
36062;BME280;22123;52.412;20.970;2023-04-30T00:19:36;100425.69;;;11.43;100.00
36062;BME280;22123;52.412;20.970;2023-04-30T00:22:02;100434.44;;;11.45;100.00
36062;BME280;22123;52.412;20.970;2023-04-30T00:24:28;100423.72;;;11.37;100.00
36062;BME280;22123;52.412;20.970;2023-04-30T00:26:54;100428.06;;;11.38;100.00
36062;BME280;22123;52.412;20.970;2023-04-30T00:29:20;100413.53;;;11.24;100.00
36062;BME280;22123;52.412;20.970;2023-04-30T00:31:46;100440.06;;;11.36;100.00
36062;BME280;22123;52.412;20.970;2023-04-30T00:34:11;100412.34;;;11.27;100.00
36062;BME280;22123;52.412;20.970;2023-04-30T00:36:37;100417.72;;;11.27;100.00
36062;BME280;22123;52.412;20.970;2023-04-30T00:39:04;100439.91;;;11.37;100.00
36062;BME280;22123;52.412;20.970;2023-04-30T00:41:30;100461.34;;;11.54;100.00
36062;BME280;22123;52.412;20.970;2023-04-30T00:43:56;100461.00;;;11.57;100.00
36062;BME280;22123;52.412;20.970;2023-04-30T00:46:21;100441.69;;;11.45;100.00
36062;BME280;22123;52.412;20.970;2023-04-30T00:48:47;100430.31;;;11.35;100.00
36062;BME280;22123;52.412;20.970;2023-04-30T00:51:13;100427.97;;;11.31;100.00
36062;BME280;22123;52.412;20.970;2023-04-30T00:53:39;100465.06;;;11.53;100.00
36062;BME280;22123;52.412;20.970;2023-04-30T00:56:07;100409.88;;;11.17;100.00
36062;BME280;22123;52.412;20.970;2023-04-30T00:58:34;100443.59;;;11.36;100.00
36062;BME280;22123;52.412;20.970;2023-04-30T01:01:00;100466.28;;;11.50;100.00
36062;BME280;22123;52.412;20.970;2023-04-30T01:03:27;100455.34;;;11.43;100.00
36062;BME280;22123;52.412;20.970;2023-04-30T01:05:53;100447.97;;;11.37;100.00
36062;BME280;22123;52.412;20.970;2023-04-30T01:08:19;100428.84;;;11.24;100.00
36062;BME280;22123;52.412;20.970;2023-04-30T01:11:06;100462.44;;;11.44;100.00
36062;BME280;22123;52.412;20.970;2023-04-30T01:13:39;100468.47;;;11.46;100.00
36062;BME280;22123;52.412;20.970;2023-04-30T01:16:22;100422.25;;;11.26;100.00
36062;BME280;22123;52.412;20.970;2023-04-30T01:19:04;100475.31;;;11.57;100.00
36062;BME280;22123;52.412;20.970;2023-04-30T01:21:34;100454.44;;;11.51;100.00
36062;BME280;22123;52.412;20.970;2023-04-30T01:29:28;100438.81;;;11.46;100.00
36062;BME280;22123;52.412;20.970;2023-04-30T01:31:54;100456.09;;;11.60;100.00
36062;BME280;22123;52.412;20.970;2023-04-30T01:34:20;100441.81;;;11.52;100.00
36062;BME280;22123;52.412;20.970;2023-04-30T01:37:05;100483.25;;;11.82;100.00
36062;BME280;22123;52.412;20.970;2023-04-30T01:39:47;100464.06;;;11.77;100.00
36062;BME280;22123;52.412;20.970;2023-04-30T01:42:27;100469.38;;;11.85;100.00
36062;BME280;22123;52.412;20.970;2023-04-30T01:47:51;100465.69;;;11.86;100.00
36062;BME280;22123;52.412;20.970;2023-04-30T01:50:24;100490.03;;;12.01;100.00
36062;BME280;22123;52.412;20.970;2023-04-30T01:52:55;100499.13;;;12.00;100.00
36062;BME280;22123;52.412;20.970;2023-04-30T01:55:33;100485.47;;;12.02;100.00
36062;BME280;22123;52.412;20.970;2023-04-30T01:58:04;100474.72;;;11.93;100.00
36062;BME280;22123;52.412;20.970;2023-04-30T02:00:31;100484.47;;;12.03;100.00
36062;BME280;22123;52.412;20.970;2023-04-30T02:02:58;100476.53;;;12.01;100.00
36062;BME280;22123;52.412;20.970;2023-04-30T02:05:24;100488.16;;;12.02;100.00
36062;BME280;22123;52.412;20.970;2023-04-30T02:07:51;100437.06;;;11.77;100.00
36062;BME280;22123;52.412;20.970;2023-04-30T02:10:21;100498.72;;;12.11;100.00
36062;BME280;22123;52.412;20.970;2023-04-30T02:12:48;100485.47;;;12.02;100.00
36062;BME280;22123;52.412;20.970;2023-04-30T02:15:14;100472.53;;;11.97;100.00
36062;BME280;22123;52.412;20.970;2023-04-30T02:17:40;100512.34;;;12.18;100.00
36062;BME280;22123;52.412;20.970;2023-04-30T02:20:06;100489.91;;;11.94;100.00
36062;BME280;22123;52.412;20.970;2023-04-30T02:22:33;100479.44;;;11.91;100.00
36062;BME280;22123;52.412;20.970;2023-04-30T02:24:58;100509.75;;;12.02;100.00
36062;BME280;22123;52.412;20.970;2023-04-30T02:27:25;100491.34;;;11.82;100.00
36062;BME280;22123;52.412;20.970;2023-04-30T02:29:51;100494.53;;;11.77;100.00
36062;BME280;22123;52.412;20.970;2023-04-30T02:32:18;100504.50;;;11.77;100.00
36062;BME280;22123;52.412;20.970;2023-04-30T02:34:43;100533.41;;;11.91;100.00
36062;BME280;22123;52.412;20.970;2023-04-30T02:37:09;100504.97;;;11.57;100.00
36062;BME280;22123;52.412;20.970;2023-04-30T02:39:35;100515.41;;;11.60;100.00
36062;BME280;22123;52.412;20.970;2023-04-30T02:42:01;100501.00;;;11.45;100.00
36062;BME280;22123;52.412;20.970;2023-04-30T02:44:27;100523.38;;;11.45;100.00
36062;BME280;22123;52.412;20.970;2023-04-30T02:46:53;100544.28;;;11.52;100.00
36062;BME280;22123;52.412;20.970;2023-04-30T02:49:19;100534.16;;;11.45;100.00
36062;BME280;22123;52.412;20.970;2023-04-30T02:51:45;100480.13;;;11.07;100.00
36062;BME280;22123;52.412;20.970;2023-04-30T02:54:11;100558.94;;;11.49;100.00
36062;BME280;22123;52.412;20.970;2023-04-30T02:56:37;100531.38;;;11.30;100.00
36062;BME280;22123;52.412;20.970;2023-04-30T02:59:03;100521.16;;;11.18;100.00
36062;BME280;22123;52.412;20.970;2023-04-30T03:01:29;100560.50;;;11.35;100.00
36062;BME280;22123;52.412;20.970;2023-04-30T03:03:54;100557.88;;;11.27;100.00
36062;BME280;22123;52.412;20.970;2023-04-30T03:06:20;100539.56;;;11.14;100.00
36062;BME280;22123;52.412;20.970;2023-04-30T03:08:46;100564.56;;;11.31;100.00
36062;BME280;22123;52.412;20.970;2023-04-30T03:11:12;100556.03;;;11.19;100.00
36062;BME280;22123;52.412;20.970;2023-04-30T03:13:38;100560.94;;;11.16;100.00
36062;BME280;22123;52.412;20.970;2023-04-30T03:16:04;100553.03;;;11.06;100.00
36062;BME280;22123;52.412;20.970;2023-04-30T03:18:30;100542.81;;;10.85;100.00
36062;BME280;22123;52.412;20.970;2023-04-30T03:20:55;100589.47;;;10.93;100.00
36062;BME280;22123;52.412;20.970;2023-04-30T03:23:22;100561.53;;;10.78;100.00
36062;BME280;22123;52.412;20.970;2023-04-30T03:25:48;100617.56;;;10.91;100.00
36062;BME280;22123;52.412;20.970;2023-04-30T03:28:14;100568.97;;;10.59;100.00
36062;BME280;22123;52.412;20.970;2023-04-30T03:30:40;100568.47;;;10.48;100.00
36062;BME280;22123;52.412;20.970;2023-04-30T03:33:06;100614.03;;;10.66;100.00
36062;BME280;22123;52.412;20.970;2023-04-30T03:35:33;100598.56;;;10.59;100.00
36062;BME280;22123;52.412;20.970;2023-04-30T03:37:59;100596.22;;;10.56;100.00
36062;BME280;22123;52.412;20.970;2023-04-30T03:40:26;100634.41;;;10.68;100.00
36062;BME280;22123;52.412;20.970;2023-04-30T03:42:52;100612.53;;;10.47;100.00
36062;BME280;22123;52.412;20.970;2023-04-30T03:45:18;100598.72;;;10.33;100.00
36062;BME280;22123;52.412;20.970;2023-04-30T03:47:44;100633.56;;;10.51;100.00
36062;BME280;22123;52.412;20.970;2023-04-30T03:50:10;100621.63;;;10.37;100.00
36062;BME280;22123;52.412;20.970;2023-04-30T03:52:36;100616.38;;;10.27;100.00
36062;BME280;22123;52.412;20.970;2023-04-30T03:55:03;100633.69;;;10.33;100.00
36062;BME280;22123;52.412;20.970;2023-04-30T03:57:29;100614.84;;;10.25;100.00
36062;BME280;22123;52.412;20.970;2023-04-30T03:59:55;100604.06;;;10.08;100.00
36062;BME280;22123;52.412;20.970;2023-04-30T04:02:21;100626.78;;;10.14;100.00
36062;BME280;22123;52.412;20.970;2023-04-30T04:04:47;100655.72;;;10.29;100.00
36062;BME280;22123;52.412;20.970;2023-04-30T04:07:13;100668.69;;;10.33;100.00
36062;BME280;22123;52.412;20.970;2023-04-30T04:09:39;100665.16;;;10.33;100.00
36062;BME280;22123;52.412;20.970;2023-04-30T04:12:05;100656.69;;;10.19;100.00
36062;BME280;22123;52.412;20.970;2023-04-30T04:14:31;100690.38;;;10.32;100.00
36062;BME280;22123;52.412;20.970;2023-04-30T04:16:57;100678.06;;;10.13;100.00
36062;BME280;22123;52.412;20.970;2023-04-30T04:19:23;100670.31;;;10.09;100.00
36062;BME280;22123;52.412;20.970;2023-04-30T04:21:49;100666.59;;;10.02;100.00
36062;BME280;22123;52.412;20.970;2023-04-30T04:24:15;100669.28;;;10.10;100.00
36062;BME280;22123;52.412;20.970;2023-04-30T04:26:40;100670.81;;;10.13;100.00
36062;BME280;22123;52.412;20.970;2023-04-30T04:29:06;100576.69;;;9.54;100.00
36062;BME280;22123;52.412;20.970;2023-04-30T04:31:32;100636.28;;;9.92;100.00
36062;BME280;22123;52.412;20.970;2023-04-30T04:33:59;100715.97;;;10.36;100.00
36062;BME280;22123;52.412;20.970;2023-04-30T04:36:26;100700.28;;;10.23;100.00
36062;BME280;22123;52.412;20.970;2023-04-30T04:38:53;100702.78;;;10.24;100.00
36062;BME280;22123;52.412;20.970;2023-04-30T04:41:19;100725.41;;;10.48;100.00
36062;BME280;22123;52.412;20.970;2023-04-30T04:43:45;100712.59;;;10.34;100.00
36062;BME280;22123;52.412;20.970;2023-04-30T04:46:10;100715.28;;;10.34;100.00
36062;BME280;22123;52.412;20.970;2023-04-30T04:48:36;100702.63;;;10.26;100.00
36062;BME280;22123;52.412;20.970;2023-04-30T04:51:02;100737.69;;;10.42;100.00
36062;BME280;22123;52.412;20.970;2023-04-30T04:53:28;100704.53;;;10.34;100.00
36062;BME280;22123;52.412;20.970;2023-04-30T04:55:54;100747.31;;;10.61;100.00
36062;BME280;22123;52.412;20.970;2023-04-30T04:58:20;100724.91;;;10.53;100.00
36062;BME280;22123;52.412;20.970;2023-04-30T05:00:46;100718.88;;;10.51;100.00
36062;BME280;22123;52.412;20.970;2023-04-30T05:03:12;100744.13;;;10.66;100.00
36062;BME280;22123;52.412;20.970;2023-04-30T05:05:37;100712.47;;;10.52;100.00
36062;BME280;22123;52.412;20.970;2023-04-30T05:08:03;100732.66;;;10.64;100.00
36062;BME280;22123;52.412;20.970;2023-04-30T05:10:50;100752.25;;;10.91;100.00
36062;BME280;22123;52.412;20.970;2023-04-30T05:13:16;100771.94;;;10.91;100.00
36062;BME280;22123;52.412;20.970;2023-04-30T05:15:41;100766.72;;;10.90;100.00
36062;BME280;22123;52.412;20.970;2023-04-30T05:18:07;100737.56;;;10.69;100.00
36062;BME280;22123;52.412;20.970;2023-04-30T05:20:33;100705.38;;;10.34;100.00
36062;BME280;22123;52.412;20.970;2023-04-30T05:22:59;100741.78;;;10.63;100.00
36062;BME280;22123;52.412;20.970;2023-04-30T05:25:25;100779.81;;;10.85;100.00
36062;BME280;22123;52.412;20.970;2023-04-30T05:27:51;100774.44;;;10.85;100.00
36062;BME280;22123;52.412;20.970;2023-04-30T05:30:17;100762.31;;;10.72;100.00
36062;BME280;22123;52.412;20.970;2023-04-30T05:32:43;100779.81;;;10.85;100.00
36062;BME280;22123;52.412;20.970;2023-04-30T05:35:18;100801.72;;;10.90;100.00
36062;BME280;22123;52.412;20.970;2023-04-30T05:37:44;100755.38;;;10.53;100.00
36062;BME280;22123;52.412;20.970;2023-04-30T05:40:11;100788.75;;;10.77;100.00
36062;BME280;22123;52.412;20.970;2023-04-30T05:42:37;100809.13;;;10.88;100.00
36062;BME280;22123;52.412;20.970;2023-04-30T05:45:03;100804.28;;;11.00;100.00
36062;BME280;22123;52.412;20.970;2023-04-30T05:47:28;100774.13;;;11.04;100.00
36062;BME280;22123;52.412;20.970;2023-04-30T05:49:54;100764.19;;;11.05;100.00
36062;BME280;22123;52.412;20.970;2023-04-30T05:52:20;100798.22;;;11.30;100.00
36062;BME280;22123;52.412;20.970;2023-04-30T05:54:46;100823.00;;;11.34;100.00
36062;BME280;22123;52.412;20.970;2023-04-30T05:57:12;100837.63;;;11.23;100.00
36062;BME280;22123;52.412;20.970;2023-04-30T05:59:38;100805.13;;;11.08;100.00
36062;BME280;22123;52.412;20.970;2023-04-30T06:02:04;100801.75;;;10.98;100.00
36062;BME280;22123;52.412;20.970;2023-04-30T06:04:30;100824.66;;;11.27;100.00
36062;BME280;22123;52.412;20.970;2023-04-30T06:06:56;100813.53;;;10.97;100.00
36062;BME280;22123;52.412;20.970;2023-04-30T06:09:22;100813.34;;;10.90;100.00
36062;BME280;22123;52.412;20.970;2023-04-30T06:11:48;100822.44;;;10.98;100.00
36062;BME280;22123;52.412;20.970;2023-04-30T06:14:14;100842.34;;;11.13;100.00
36062;BME280;22123;52.412;20.970;2023-04-30T06:16:40;100841.00;;;11.25;100.00
36062;BME280;22123;52.412;20.970;2023-04-30T06:19:06;100793.66;;;11.14;100.00
36062;BME280;22123;52.412;20.970;2023-04-30T06:21:31;100825.34;;;11.29;100.00
36062;BME280;22123;52.412;20.970;2023-04-30T06:23:57;100832.06;;;11.25;100.00
36062;BME280;22123;52.412;20.970;2023-04-30T06:26:23;100802.44;;;11.17;100.00
36062;BME280;22123;52.412;20.970;2023-04-30T06:28:49;100842.69;;;11.35;100.00
36062;BME280;22123;52.412;20.970;2023-04-30T06:31:15;100799.91;;;11.07;100.00
36062;BME280;22123;52.412;20.970;2023-04-30T06:33:41;100843.19;;;11.55;100.00
36062;BME280;22123;52.412;20.970;2023-04-30T06:36:07;100822.28;;;11.57;100.00
36062;BME280;22123;52.412;20.970;2023-04-30T06:38:33;100812.00;;;11.60;100.00
36062;BME280;22123;52.412;20.970;2023-04-30T06:40:58;100794.66;;;11.46;100.00
36062;BME280;22123;52.412;20.970;2023-04-30T06:43:24;100826.84;;;11.56;100.00
36062;BME280;22123;52.412;20.970;2023-04-30T06:45:50;100825.50;;;11.52;100.00
36062;BME280;22123;52.412;20.970;2023-04-30T06:48:16;100819.63;;;11.40;100.00
36062;BME280;22123;52.412;20.970;2023-04-30T06:50:42;100837.66;;;11.40;100.00
36062;BME280;22123;52.412;20.970;2023-04-30T06:53:08;100817.41;;;11.27;100.00
36062;BME280;22123;52.412;20.970;2023-04-30T06:55:34;100790.28;;;11.29;100.00
36062;BME280;22123;52.412;20.970;2023-04-30T06:58:00;100817.06;;;11.72;100.00
36062;BME280;22123;52.412;20.970;2023-04-30T07:00:26;100822.25;;;11.81;100.00
36062;BME280;22123;52.412;20.970;2023-04-30T07:02:52;100815.50;;;11.77;100.00
36062;BME280;22123;52.412;20.970;2023-04-30T07:05:17;100813.31;;;11.81;100.00
36062;BME280;22123;52.412;20.970;2023-04-30T07:07:43;100781.47;;;11.76;100.00
36062;BME280;22123;52.412;20.970;2023-04-30T07:10:09;100836.91;;;12.04;100.00
36062;BME280;22123;52.412;20.970;2023-04-30T07:12:35;100815.16;;;11.97;100.00
36062;BME280;22123;52.412;20.970;2023-04-30T07:15:01;100826.41;;;12.17;100.00
36062;BME280;22123;52.412;20.970;2023-04-30T07:17:27;100834.31;;;12.27;100.00
36062;BME280;22123;52.412;20.970;2023-04-30T07:19:53;100852.88;;;12.30;100.00
36062;BME280;22123;52.412;20.970;2023-04-30T07:22:18;100811.75;;;12.11;100.00
36062;BME280;22123;52.412;20.970;2023-04-30T07:24:44;100798.56;;;12.16;100.00
36062;BME280;22123;52.412;20.970;2023-04-30T07:27:10;100824.28;;;12.44;100.00
36062;BME280;22123;52.412;20.970;2023-04-30T07:29:36;100860.75;;;12.79;100.00
36062;BME280;22123;52.412;20.970;2023-04-30T07:32:02;100836.13;;;12.97;100.00
36062;BME280;22123;52.412;20.970;2023-04-30T07:34:28;100826.53;;;13.41;100.00
36062;BME280;22123;52.412;20.970;2023-04-30T07:36:54;100825.22;;;13.75;100.00
36062;BME280;22123;52.412;20.970;2023-04-30T07:39:20;100849.34;;;14.44;100.00
36062;BME280;22123;52.412;20.970;2023-04-30T07:41:45;100866.69;;;15.17;100.00
36062;BME280;22123;52.412;20.970;2023-04-30T07:44:11;100855.13;;;15.51;100.00
36062;BME280;22123;52.412;20.970;2023-04-30T07:46:37;100868.09;;;16.06;100.00
36062;BME280;22123;52.412;20.970;2023-04-30T07:49:03;100863.34;;;16.56;100.00
36062;BME280;22123;52.412;20.970;2023-04-30T07:51:29;100875.34;;;17.44;100.00
36062;BME280;22123;52.412;20.970;2023-04-30T07:53:54;100868.03;;;17.71;94.32
36062;BME280;22123;52.412;20.970;2023-04-30T07:56:20;100868.66;;;18.00;87.24
36062;BME280;22123;52.412;20.970;2023-04-30T07:58:46;100861.22;;;18.54;86.10
36062;BME280;22123;52.412;20.970;2023-04-30T08:01:12;100867.38;;;18.81;78.59
36062;BME280;22123;52.412;20.970;2023-04-30T08:03:38;100890.28;;;19.19;69.91
36062;BME280;22123;52.412;20.970;2023-04-30T08:06:04;100889.28;;;20.02;61.03
36062;BME280;22123;52.412;20.970;2023-04-30T08:08:30;100875.81;;;20.44;62.10
36062;BME280;22123;52.412;20.970;2023-04-30T08:10:56;100876.09;;;20.92;58.00
36062;BME280;22123;52.412;20.970;2023-04-30T08:13:23;100867.66;;;22.13;54.29
36062;BME280;22123;52.412;20.970;2023-04-30T08:15:49;100855.75;;;22.72;46.17
36062;BME280;22123;52.412;20.970;2023-04-30T08:18:15;100889.91;;;23.05;41.70
36062;BME280;22123;52.412;20.970;2023-04-30T08:20:40;100865.25;;;23.39;40.77
36062;BME280;22123;52.412;20.970;2023-04-30T08:23:06;100887.50;;;23.37;35.89
36062;BME280;22123;52.412;20.970;2023-04-30T08:25:32;100890.59;;;23.41;37.00
36062;BME280;22123;52.412;20.970;2023-04-30T08:27:58;100908.75;;;23.59;35.88
36062;BME280;22123;52.412;20.970;2023-04-30T08:30:24;100887.00;;;23.23;36.62
36062;BME280;22123;52.412;20.970;2023-04-30T08:32:50;100885.75;;;22.62;35.63
36062;BME280;22123;52.412;20.970;2023-04-30T08:35:16;100881.59;;;22.23;35.88
36062;BME280;22123;52.412;20.970;2023-04-30T08:37:42;100911.22;;;21.56;36.76
36062;BME280;22123;52.412;20.970;2023-04-30T08:40:08;100907.03;;;20.74;39.23
36062;BME280;22123;52.412;20.970;2023-04-30T08:42:41;100912.97;;;20.08;40.82
36062;BME280;22123;52.412;20.970;2023-04-30T08:45:10;100906.50;;;19.45;42.25
36062;BME280;22123;52.412;20.970;2023-04-30T08:47:37;100920.59;;;19.04;43.71
36062;BME280;22123;52.412;20.970;2023-04-30T08:50:04;100914.44;;;18.70;43.61
36062;BME280;22123;52.412;20.970;2023-04-30T08:52:33;100926.16;;;18.77;42.49
36062;BME280;22123;52.412;20.970;2023-04-30T08:55:00;100907.00;;;17.85;42.54
36062;BME280;22123;52.412;20.970;2023-04-30T08:57:26;100909.25;;;17.34;42.97
36062;BME280;22123;52.412;20.970;2023-04-30T08:59:52;100918.84;;;16.75;46.28
36062;BME280;22123;52.412;20.970;2023-04-30T09:02:19;100933.75;;;16.51;46.12
36062;BME280;22123;52.412;20.970;2023-04-30T09:04:45;100922.13;;;16.22;46.33
36062;BME280;22123;52.412;20.970;2023-04-30T09:07:12;100897.78;;;15.64;49.32
36062;BME280;22123;52.412;20.970;2023-04-30T09:09:38;100917.34;;;15.53;50.18
36062;BME280;22123;52.412;20.970;2023-04-30T09:12:15;100919.84;;;15.54;49.88
36062;BME280;22123;52.412;20.970;2023-04-30T09:14:56;100940.38;;;15.63;49.59
36062;BME280;22123;52.412;20.970;2023-04-30T09:17:23;100914.66;;;15.38;49.33
36062;BME280;22123;52.412;20.970;2023-04-30T09:19:48;100931.47;;;15.70;48.97
36062;BME280;22123;52.412;20.970;2023-04-30T09:22:22;100940.72;;;15.97;48.79
36062;BME280;22123;52.412;20.970;2023-04-30T09:24:49;100926.28;;;15.32;48.93
36062;BME280;22123;52.412;20.970;2023-04-30T09:29:42;100946.03;;;14.74;49.40
36062;BME280;22123;52.412;20.970;2023-04-30T09:32:08;100948.16;;;14.78;49.29
36062;BME280;22123;52.412;20.970;2023-04-30T09:34:34;100969.50;;;14.67;52.04
36062;BME280;22123;52.412;20.970;2023-04-30T09:36:59;100940.50;;;14.22;54.35
36062;BME280;22123;52.412;20.970;2023-04-30T09:39:25;100930.91;;;13.97;53.95
36062;BME280;22123;52.412;20.970;2023-04-30T09:41:51;100928.63;;;13.85;53.95
36062;BME280;22123;52.412;20.970;2023-04-30T09:44:26;100966.88;;;14.20;52.68
36062;BME280;22123;52.412;20.970;2023-04-30T09:46:52;100979.09;;;14.16;53.55
36062;BME280;22123;52.412;20.970;2023-04-30T09:49:18;100953.63;;;13.87;51.23
36062;BME280;22123;52.412;20.970;2023-04-30T09:51:57;100942.19;;;14.00;54.56
36062;BME280;22123;52.412;20.970;2023-04-30T09:54:30;100945.75;;;14.01;58.49
36062;BME280;22123;52.412;20.970;2023-04-30T09:56:58;100951.97;;;14.24;51.10
36062;BME280;22123;52.412;20.970;2023-04-30T09:59:32;100968.53;;;14.59;52.65
36062;BME280;22123;52.412;20.970;2023-04-30T10:02:00;100951.94;;;14.77;52.18
36062;BME280;22123;52.412;20.970;2023-04-30T10:04:32;100966.16;;;15.16;50.20
36062;BME280;22123;52.412;20.970;2023-04-30T10:07:01;100933.00;;;15.36;56.28
36062;BME280;22123;52.412;20.970;2023-04-30T10:09:36;100941.81;;;16.03;43.91
36062;BME280;22123;52.412;20.970;2023-04-30T10:12:05;100931.19;;;17.26;43.58
36062;BME280;22123;52.412;20.970;2023-04-30T10:14:32;100938.88;;;18.11;44.53
36062;BME280;22123;52.412;20.970;2023-04-30T10:17:10;100933.19;;;18.39;42.36
36062;BME280;22123;52.412;20.970;2023-04-30T10:19:38;100948.00;;;19.93;36.39
36062;BME280;22123;52.412;20.970;2023-04-30T10:22:04;100939.63;;;21.43;35.35
36062;BME280;22123;52.412;20.970;2023-04-30T10:24:30;100918.03;;;22.83;31.29
36062;BME280;22123;52.412;20.970;2023-04-30T10:26:56;100932.81;;;24.37;27.54
36062;BME280;22123;52.412;20.970;2023-04-30T10:29:22;100922.47;;;25.92;25.23
36062;BME280;22123;52.412;20.970;2023-04-30T10:31:50;100948.50;;;26.92;25.94
36062;BME280;22123;52.412;20.970;2023-04-30T10:39:50;100935.97;;;26.69;23.74
36062;BME280;22123;52.412;20.970;2023-04-30T10:42:16;100933.69;;;26.13;23.15
36062;BME280;22123;52.412;20.970;2023-04-30T10:44:42;100936.06;;;25.39;24.90
36062;BME280;22123;52.412;20.970;2023-04-30T10:47:08;100936.84;;;25.12;25.33
36062;BME280;22123;52.412;20.970;2023-04-30T10:49:34;100929.75;;;24.72;25.23
36062;BME280;22123;52.412;20.970;2023-04-30T10:52:02;100955.75;;;25.04;26.28
36062;BME280;22123;52.412;20.970;2023-04-30T10:54:33;100935.03;;;25.78;24.14
36062;BME280;22123;52.412;20.970;2023-04-30T10:57:16;100940.84;;;26.09;24.55
36062;BME280;22123;52.412;20.970;2023-04-30T11:02:42;100958.00;;;25.56;23.76
36062;BME280;22123;52.412;20.970;2023-04-30T11:05:12;100960.44;;;25.03;26.84
36062;BME280;22123;52.412;20.970;2023-04-30T11:08:05;100955.13;;;24.57;27.90
36062;BME280;22123;52.412;20.970;2023-04-30T11:10:35;100970.16;;;23.82;27.97
36062;BME280;22123;52.412;20.970;2023-04-30T11:13:05;100938.38;;;23.11;29.15
36062;BME280;22123;52.412;20.970;2023-04-30T11:15:34;100895.44;;;22.17;30.04
36062;BME280;22123;52.412;20.970;2023-04-30T11:18:04;100941.94;;;21.58;32.64
36062;BME280;22123;52.412;20.970;2023-04-30T11:20:31;100948.16;;;21.65;32.03
36062;BME280;22123;52.412;20.970;2023-04-30T11:23:16;100930.34;;;22.10;31.04
36062;BME280;22123;52.412;20.970;2023-04-30T11:25:44;100974.94;;;22.29;29.28
36062;BME280;22123;52.412;20.970;2023-04-30T11:28:19;100954.00;;;22.58;30.14
36062;BME280;22123;52.412;20.970;2023-04-30T11:30:57;100938.41;;;22.87;31.16
36062;BME280;22123;52.412;20.970;2023-04-30T11:33:29;100937.81;;;22.97;31.16
36062;BME280;22123;52.412;20.970;2023-04-30T11:35:57;100914.25;;;22.72;29.84
36062;BME280;22123;52.412;20.970;2023-04-30T11:38:36;100974.44;;;22.91;29.21
36062;BME280;22123;52.412;20.970;2023-04-30T11:41:06;100952.94;;;23.12;29.54
36062;BME280;22123;52.412;20.970;2023-04-30T11:43:33;100925.50;;;23.29;30.70
36062;BME280;22123;52.412;20.970;2023-04-30T11:46:12;100978.19;;;23.25;29.48
36062;BME280;22123;52.412;20.970;2023-04-30T11:48:40;100960.00;;;22.84;30.68
36062;BME280;22123;52.412;20.970;2023-04-30T11:51:29;100959.28;;;21.82;32.21
36062;BME280;22123;52.412;20.970;2023-04-30T11:53:55;100978.66;;;21.38;30.19
36062;BME280;22123;52.412;20.970;2023-04-30T11:56:22;100927.81;;;20.81;34.37
36062;BME280;22123;52.412;20.970;2023-04-30T11:58:49;100923.75;;;20.65;33.80
36062;BME280;22123;52.412;20.970;2023-04-30T12:01:16;100962.69;;;20.86;32.46
36062;BME280;22123;52.412;20.970;2023-04-30T12:03:44;100984.63;;;20.98;33.64
36062;BME280;22123;52.412;20.970;2023-04-30T12:06:11;100982.06;;;20.84;33.38
36062;BME280;22123;52.412;20.970;2023-04-30T12:08:37;100966.84;;;20.45;35.11
36062;BME280;22123;52.412;20.970;2023-04-30T12:11:03;100919.94;;;19.79;33.52
36062;BME280;22123;52.412;20.970;2023-04-30T12:13:30;100954.63;;;19.78;32.73
36062;BME280;22123;52.412;20.970;2023-04-30T12:15:57;100979.91;;;19.67;33.19
36062;BME280;22123;52.412;20.970;2023-04-30T12:18:23;100957.22;;;19.28;34.94
36062;BME280;22123;52.412;20.970;2023-04-30T12:20:49;100953.19;;;18.92;37.20
36062;BME280;22123;52.412;20.970;2023-04-30T12:23:15;100994.50;;;18.96;39.20
36062;BME280;22123;52.412;20.970;2023-04-30T12:25:41;100968.75;;;18.58;37.90
36062;BME280;22123;52.412;20.970;2023-04-30T12:28:07;100965.66;;;18.28;36.82
36062;BME280;22123;52.412;20.970;2023-04-30T12:30:33;100939.91;;;18.17;36.46
36062;BME280;22123;52.412;20.970;2023-04-30T12:32:59;100951.63;;;18.24;37.16
36062;BME280;22123;52.412;20.970;2023-04-30T12:35:27;100959.84;;;18.11;37.04
36062;BME280;22123;52.412;20.970;2023-04-30T12:38:01;101002.38;;;18.05;38.85
36062;BME280;22123;52.412;20.970;2023-04-30T12:40:27;100953.03;;;17.60;39.09
36062;BME280;22123;52.412;20.970;2023-04-30T12:43:07;100992.00;;;17.60;39.00
36062;BME280;22123;52.412;20.970;2023-04-30T12:45:50;100963.84;;;17.26;37.08
36062;BME280;22123;52.412;20.970;2023-04-30T12:48:18;100973.06;;;17.25;37.94
36062;BME280;22123;52.412;20.970;2023-04-30T12:50:51;100910.38;;;16.57;39.94
36062;BME280;22123;52.412;20.970;2023-04-30T12:53:17;100987.38;;;16.92;40.49